Walton, Canada
Current Conditions -  °F | °C
As of 4:00 AM on Wednesday 26 Nov 2014 (Local Time) from CYHZ Reporting Station
Broken Clouds Broken Clouds  
Wind Chill: 39°   Ceiling: 22000
Heat Index: 45°   Visibility: 15mi
Dew Point: 36°   Wind: 10mph
Humidity: 71%   Direction: 300°WNW
Pressure: 30.05"   Gusts: 18mph
Location:  45.22°N, 64.02°W
Report Text: CYHZ 260800Z 30009G16KT 15SM BKN220 07/02 A3005 RMK CI7 SLP178
Loading
Personal Weather Stations






























Interactive Weather Map New forecast layout! Learn more

10-Day Weather Forecast

Advertisements
Track Severe Weather on mobile